Terminal Aerodrome Forecast
Issued by NWS

Home | Current Version | Previous Version | Text Only | Print | Product List | Glossary On
Versions: 1 2 3 4 5 6 7 8 9 10 11 12 13 14 15 16 17 18 19 20
421
FTUS44 KEPZ 202320
TAFLRU
TAF
KLRU 202320Z 2100/2124 26017G25KT P6SM VCSH SCT050 BKN120
     FM210300 22018G26KT 6SM -SHRA SCT015 OVC035
     FM211000 24022G30KT 6SM -SHRA SCT015 BKN040 BKN080
     FM211800 26034G43KT P6SM BKN050 OVC100
     FM212200 26041G51KT 4SM BLDU BKN060=

USA.gov is the U.S. government's official web portal to all federal, state and local government web resources and services.